<?xml version="1.0" encoding="UTF-8" standalone="no" ?>
<gpx xmlns="http://www.topografix.com/GPX/1/1" xmlns:xsi="http://www.w3.org/2001/XMLSchema-instance" xsi:schemaLocation="http://www.topografix.com/GPX/1/1 http://www.topografix.com/GPX/1/1/gpx.xsd" version="1.1" creator="VisuGPX - https://www.visugpx.com">
  <metadata>
    <name>2024 05 22 Parcours Total 2024</name>
  </metadata>
  <trk>
    <name><![CDATA[VTT7 Normal]]></name>
    <extensions>
      <line xmlns="http://www.topografix.com/GPX/gpx_style/0/2">
        <color>ff00bb</color>
        <width>5</width>
      </line>
    </extensions>
    <trkseg>
      <trkpt lat="48.12595" lon="3.30846">
        <ele>81</ele>
        <time>2023-09-16T09:07:01Z</time>
        <extensions>
          <visugpx:TrkExtension xmlns:visugpx="https://www.visugpx.com/editgpx/">
            <visugpx:node>1</visugpx:node>
            </visugpx:TrkExtension>
        </extensions>
      </trkpt>
      <trkpt lat="48.12594" lon="3.3084">
        <ele>80.9</ele>
        <time>2023-09-16T09:07:17Z</time>
      </trkpt>
      <trkpt lat="48.12595" lon="3.30842">
        <ele>80.9</ele>
        <time>2023-09-16T09:07:24Z</time>
      </trkpt>
      <trkpt lat="48.12597" lon="3.30843">
        <ele>80.9</ele>
        <time>2023-09-16T09:07:25Z</time>
      </trkpt>
      <trkpt lat="48.12599" lon="3.30844">
        <ele>80.8</ele>
        <time>2023-09-16T09:07:26Z</time>
      </trkpt>
      <trkpt lat="48.126" lon="3.30845">
        <ele>80.8</ele>
        <time>2023-09-16T09:07:27Z</time>
      </trkpt>
      <trkpt lat="48.12602" lon="3.30847">
        <ele>80.8</ele>
        <time>2023-09-16T09:07:28Z</time>
      </trkpt>
      <trkpt lat="48.12603" lon="3.3085">
        <ele>80.9</ele>
        <time>2023-09-16T09:07:29Z</time>
      </trkpt>
      <trkpt lat="48.12603" lon="3.30853">
        <ele>81</ele>
        <time>2023-09-16T09:07:30Z</time>
      </trkpt>
      <trkpt lat="48.12602" lon="3.30855">
        <ele>81.1</ele>
        <time>2023-09-16T09:07:31Z</time>
      </trkpt>
      <trkpt lat="48.12601" lon="3.30857">
        <ele>81.2</ele>
        <time>2023-09-16T09:07:32Z</time>
      </trkpt>
      <trkpt lat="48.12599" lon="3.30859">
        <ele>81.4</ele>
        <time>2023-09-16T09:07:33Z</time>
      </trkpt>
      <trkpt lat="48.12598" lon="3.30862">
        <ele>81.5</ele>
        <time>2023-09-16T09:07:34Z</time>
      </trkpt>
      <trkpt lat="48.12596" lon="3.30863">
        <ele>81.6</ele>
        <time>2023-09-16T09:07:35Z</time>
      </trkpt>
      <trkpt lat="48.12594" lon="3.30866">
        <ele>81.8</ele>
        <time>2023-09-16T09:07:36Z</time>
      </trkpt>
      <trkpt lat="48.12592" lon="3.30868">
        <ele>81.8</ele>
        <time>2023-09-16T09:07:37Z</time>
      </trkpt>
      <trkpt lat="48.12584" lon="3.30885">
        <ele>82</ele>
        <time>2023-09-16T09:07:43Z</time>
      </trkpt>
      <trkpt lat="48.12584" lon="3.30887">
        <ele>82</ele>
        <time>2023-09-16T09:07:44Z</time>
      </trkpt>
      <trkpt lat="48.12588" lon="3.30894">
        <ele>82.5</ele>
        <time>2023-09-16T09:07:48Z</time>
      </trkpt>
      <trkpt lat="48.12602" lon="3.30907">
        <ele>84</ele>
        <time>2023-09-16T09:07:57Z</time>
      </trkpt>
      <trkpt lat="48.1262" lon="3.30925">
        <ele>85.1</ele>
        <time>2023-09-16T09:08:09Z</time>
      </trkpt>
      <trkpt lat="48.12629" lon="3.30942">
        <ele>86.1</ele>
        <time>2023-09-16T09:08:17Z</time>
      </trkpt>
      <trkpt lat="48.12625" lon="3.3096">
        <ele>87.6</ele>
        <time>2023-09-16T09:08:24Z</time>
      </trkpt>
      <trkpt lat="48.12621" lon="3.30975">
        <ele>88.8</ele>
        <time>2023-09-16T09:08:31Z</time>
      </trkpt>
      <trkpt lat="48.12625" lon="3.30983">
        <ele>89.1</ele>
        <time>2023-09-16T09:08:35Z</time>
      </trkpt>
      <trkpt lat="48.12636" lon="3.31004">
        <ele>89.3</ele>
        <time>2023-09-16T09:08:45Z</time>
      </trkpt>
      <trkpt lat="48.12634" lon="3.31028">
        <ele>90.2</ele>
        <time>2023-09-16T09:08:53Z</time>
      </trkpt>
      <trkpt lat="48.12628" lon="3.31053">
        <ele>91.3</ele>
        <time>2023-09-16T09:09:02Z</time>
      </trkpt>
      <trkpt lat="48.12624" lon="3.31075">
        <ele>92.6</ele>
        <time>2023-09-16T09:09:10Z</time>
      </trkpt>
      <trkpt lat="48.12621" lon="3.31093">
        <ele>93.3</ele>
        <time>2023-09-16T09:09:17Z</time>
      </trkpt>
      <trkpt lat="48.12629" lon="3.31098">
        <ele>93.5</ele>
        <time>2023-09-16T09:09:23Z</time>
      </trkpt>
      <trkpt lat="48.12648" lon="3.31101">
        <ele>93.2</ele>
        <time>2023-09-16T09:09:30Z</time>
      </trkpt>
      <trkpt lat="48.12667" lon="3.31103">
        <ele>92.4</ele>
        <time>2023-09-16T09:09:37Z</time>
      </trkpt>
      <trkpt lat="48.12694" lon="3.31105">
        <ele>91.4</ele>
        <time>2023-09-16T09:09:45Z</time>
      </trkpt>
      <trkpt lat="48.12718" lon="3.31107">
        <ele>88.4</ele>
        <time>2023-09-16T09:09:51Z</time>
      </trkpt>
      <trkpt lat="48.12723" lon="3.31106">
        <ele>87.4</ele>
        <time>2023-09-16T09:09:53Z</time>
      </trkpt>
      <trkpt lat="48.12726" lon="3.31108">
        <ele>87.2</ele>
        <time>2023-09-16T09:09:55Z</time>
      </trkpt>
      <trkpt lat="48.12747" lon="3.31114">
        <ele>83.4</ele>
        <time>2023-09-16T09:09:59Z</time>
      </trkpt>
      <trkpt lat="48.12771" lon="3.31118">
        <ele>82.4</ele>
        <time>2023-09-16T09:10:02Z</time>
      </trkpt>
      <trkpt lat="48.12818" lon="3.31133">
        <ele>80.6</ele>
        <time>2023-09-16T09:10:08Z</time>
      </trkpt>
      <trkpt lat="48.12855" lon="3.31148">
        <ele>80.7</ele>
        <time>2023-09-16T09:10:14Z</time>
      </trkpt>
      <trkpt lat="48.12859" lon="3.31148">
        <ele>80.7</ele>
        <time>2023-09-16T09:10:15Z</time>
      </trkpt>
      <trkpt lat="48.12872" lon="3.31149">
        <ele>80.5</ele>
        <time>2023-09-16T09:10:18Z</time>
      </trkpt>
      <trkpt lat="48.12903" lon="3.31152">
        <ele>80.4</ele>
        <time>2023-09-16T09:10:26Z</time>
      </trkpt>
      <trkpt lat="48.12941" lon="3.31163">
        <ele>80.8</ele>
        <time>2023-09-16T09:10:36Z</time>
      </trkpt>
      <trkpt lat="48.12965" lon="3.31171">
        <ele>80.5</ele>
        <time>2023-09-16T09:10:44Z</time>
      </trkpt>
      <trkpt lat="48.12968" lon="3.31172">
        <ele>80.4</ele>
        <time>2023-09-16T09:10:46Z</time>
      </trkpt>
      <trkpt lat="48.12915" lon="3.31422">
        <ele>100.9</ele>
      </trkpt>
      <trkpt lat="48.13027" lon="3.31465">
        <ele>97.4</ele>
        <time>2023-09-16T09:14:26Z</time>
      </trkpt>
      <trkpt lat="48.13147" lon="3.31512">
        <ele>94.6</ele>
        <time>2023-09-16T09:14:35Z</time>
      </trkpt>
      <trkpt lat="48.1317" lon="3.3162">
        <ele>101.9</ele>
        <time>2023-09-16T09:14:43Z</time>
      </trkpt>
      <trkpt lat="48.13491" lon="3.31693">
        <ele>109.4</ele>
        <time>2023-09-16T09:14:51Z</time>
      </trkpt>
      <trkpt lat="48.13493" lon="3.3144">
        <ele>85.6</ele>
        <time>2023-09-16T09:15:05Z</time>
      </trkpt>
      <trkpt lat="48.13647" lon="3.31452">
        <ele>87.8</ele>
        <time>2023-09-16T09:16:58Z</time>
      </trkpt>
      <trkpt lat="48.13731" lon="3.31468">
        <ele>89.4</ele>
        <time>2023-09-16T09:33:27Z</time>
      </trkpt>
      <trkpt lat="48.139" lon="3.31531">
        <ele>89.9</ele>
        <time>2023-09-16T09:33:29Z</time>
      </trkpt>
      <trkpt lat="48.13961" lon="3.31555">
        <ele>91.3</ele>
        <time>2023-09-16T09:33:32Z</time>
      </trkpt>
      <trkpt lat="48.14016" lon="3.31597">
        <ele>95.1</ele>
        <time>2023-09-16T09:33:34Z</time>
      </trkpt>
      <trkpt lat="48.14022" lon="3.31598">
        <ele>95.4</ele>
        <time>2023-09-16T09:33:36Z</time>
      </trkpt>
      <trkpt lat="48.14055" lon="3.31609">
        <ele>97.7</ele>
        <time>2023-09-16T09:33:50Z</time>
      </trkpt>
      <trkpt lat="48.14068" lon="3.31614">
        <ele>98.3</ele>
        <time>2023-09-16T09:33:57Z</time>
      </trkpt>
      <trkpt lat="48.14088" lon="3.31621">
        <ele>99.1</ele>
        <time>2023-09-16T09:34:06Z</time>
      </trkpt>
      <trkpt lat="48.14111" lon="3.31626">
        <ele>100.1</ele>
        <time>2023-09-16T09:34:15Z</time>
      </trkpt>
      <trkpt lat="48.14142" lon="3.31639">
        <ele>101.1</ele>
        <time>2023-09-16T09:34:25Z</time>
      </trkpt>
      <trkpt lat="48.14168" lon="3.31639">
        <ele>102</ele>
        <time>2023-09-16T09:34:33Z</time>
      </trkpt>
      <trkpt lat="48.14191" lon="3.3164">
        <ele>101.2</ele>
        <time>2023-09-16T09:34:39Z</time>
      </trkpt>
      <trkpt lat="48.14195" lon="3.3164">
        <ele>101.1</ele>
        <time>2023-09-16T09:34:40Z</time>
      </trkpt>
      <trkpt lat="48.14199" lon="3.31641">
        <ele>101.2</ele>
        <time>2023-09-16T09:34:41Z</time>
      </trkpt>
      <trkpt lat="48.14223" lon="3.31638">
        <ele>100.9</ele>
        <time>2023-09-16T09:34:47Z</time>
      </trkpt>
      <trkpt lat="48.14232" lon="3.31636">
        <ele>100.6</ele>
        <time>2023-09-16T09:34:49Z</time>
      </trkpt>
      <trkpt lat="48.14237" lon="3.31634">
        <ele>100.3</ele>
        <time>2023-09-16T09:34:50Z</time>
      </trkpt>
      <trkpt lat="48.14252" lon="3.31626">
        <ele>99.1</ele>
        <time>2023-09-16T09:34:53Z</time>
      </trkpt>
      <trkpt lat="48.14281" lon="3.31617">
        <ele>97.9</ele>
        <time>2023-09-16T09:34:58Z</time>
      </trkpt>
      <trkpt lat="48.14288" lon="3.31616">
        <ele>97.9</ele>
        <time>2023-09-16T09:34:59Z</time>
      </trkpt>
      <trkpt lat="48.14294" lon="3.31614">
        <ele>97.9</ele>
        <time>2023-09-16T09:35:00Z</time>
      </trkpt>
      <trkpt lat="48.143" lon="3.3161">
        <ele>97.6</ele>
        <time>2023-09-16T09:35:01Z</time>
      </trkpt>
      <trkpt lat="48.14306" lon="3.31608">
        <ele>97.4</ele>
        <time>2023-09-16T09:35:02Z</time>
      </trkpt>
      <trkpt lat="48.14313" lon="3.31607">
        <ele>97.3</ele>
        <time>2023-09-16T09:35:03Z</time>
      </trkpt>
      <trkpt lat="48.1432" lon="3.31604">
        <ele>96.9</ele>
        <time>2023-09-16T09:35:04Z</time>
      </trkpt>
      <trkpt lat="48.14326" lon="3.316">
        <ele>96.3</ele>
        <time>2023-09-16T09:35:05Z</time>
      </trkpt>
      <trkpt lat="48.14332" lon="3.31598">
        <ele>96.1</ele>
        <time>2023-09-16T09:35:06Z</time>
      </trkpt>
      <trkpt lat="48.14339" lon="3.31596">
        <ele>96</ele>
        <time>2023-09-16T09:35:07Z</time>
      </trkpt>
      <trkpt lat="48.14346" lon="3.31593">
        <ele>96</ele>
        <time>2023-09-16T09:35:08Z</time>
      </trkpt>
      <trkpt lat="48.14352" lon="3.31589">
        <ele>95.9</ele>
        <time>2023-09-16T09:35:09Z</time>
      </trkpt>
      <trkpt lat="48.14358" lon="3.31586">
        <ele>96</ele>
        <time>2023-09-16T09:35:10Z</time>
      </trkpt>
      <trkpt lat="48.14378" lon="3.31577">
        <ele>94.9</ele>
        <time>2023-09-16T09:35:13Z</time>
      </trkpt>
      <trkpt lat="48.14391" lon="3.31573">
        <ele>94.6</ele>
        <time>2023-09-16T09:35:15Z</time>
      </trkpt>
      <trkpt lat="48.14397" lon="3.31571">
        <ele>94.8</ele>
        <time>2023-09-16T09:35:16Z</time>
      </trkpt>
      <trkpt lat="48.14404" lon="3.3157">
        <ele>95.1</ele>
        <time>2023-09-16T09:35:17Z</time>
      </trkpt>
      <trkpt lat="48.1441" lon="3.31567">
        <ele>95.3</ele>
        <time>2023-09-16T09:35:18Z</time>
      </trkpt>
      <trkpt lat="48.14415" lon="3.31564">
        <ele>95.5</ele>
        <time>2023-09-16T09:35:19Z</time>
      </trkpt>
      <trkpt lat="48.14421" lon="3.31562">
        <ele>95.5</ele>
        <time>2023-09-16T09:35:20Z</time>
      </trkpt>
      <trkpt lat="48.14426" lon="3.3156">
        <ele>95.4</ele>
        <time>2023-09-16T09:35:21Z</time>
      </trkpt>
      <trkpt lat="48.14458" lon="3.31546">
        <ele>93.4</ele>
        <time>2023-09-16T09:35:27Z</time>
      </trkpt>
      <trkpt lat="48.14482" lon="3.31534">
        <ele>92.8</ele>
        <time>2023-09-16T09:35:31Z</time>
      </trkpt>
      <trkpt lat="48.14487" lon="3.3153">
        <ele>92.3</ele>
        <time>2023-09-16T09:35:32Z</time>
      </trkpt>
      <trkpt lat="48.14494" lon="3.31526">
        <ele>91.7</ele>
        <time>2023-09-16T09:35:33Z</time>
      </trkpt>
      <trkpt lat="48.14516" lon="3.31514">
        <ele>90.1</ele>
        <time>2023-09-16T09:35:36Z</time>
      </trkpt>
      <trkpt lat="48.14524" lon="3.31508">
        <ele>89.7</ele>
        <time>2023-09-16T09:35:37Z</time>
      </trkpt>
      <trkpt lat="48.14548" lon="3.31489">
        <ele>87.2</ele>
        <time>2023-09-16T09:35:40Z</time>
      </trkpt>
      <trkpt lat="48.14565" lon="3.31475">
        <ele>86.2</ele>
        <time>2023-09-16T09:35:42Z</time>
      </trkpt>
      <trkpt lat="48.14585" lon="3.31457">
        <ele>84.4</ele>
        <time>2023-09-16T09:35:45Z</time>
      </trkpt>
      <trkpt lat="48.14614" lon="3.31431">
        <ele>82.6</ele>
        <time>2023-09-16T09:35:50Z</time>
      </trkpt>
      <trkpt lat="48.14622" lon="3.31427">
        <ele>82.4</ele>
        <time>2023-09-16T09:35:51Z</time>
      </trkpt>
      <trkpt lat="48.14628" lon="3.31425">
        <ele>82.3</ele>
        <time>2023-09-16T09:35:52Z</time>
      </trkpt>
      <trkpt lat="48.14633" lon="3.31425">
        <ele>82.5</ele>
        <time>2023-09-16T09:35:53Z</time>
      </trkpt>
      <trkpt lat="48.1464" lon="3.31424">
        <ele>82.5</ele>
        <time>2023-09-16T09:35:54Z</time>
      </trkpt>
      <trkpt lat="48.14659" lon="3.31424">
        <ele>82.5</ele>
        <time>2023-09-16T09:35:58Z</time>
      </trkpt>
      <trkpt lat="48.14691" lon="3.31428">
        <ele>82.5</ele>
        <time>2023-09-16T09:36:05Z</time>
      </trkpt>
      <trkpt lat="48.14721" lon="3.31433">
        <ele>82.6</ele>
        <time>2023-09-16T09:36:12Z</time>
      </trkpt>
      <trkpt lat="48.1476" lon="3.3144">
        <ele>83.7</ele>
        <time>2023-09-16T09:36:22Z</time>
      </trkpt>
      <trkpt lat="48.14781" lon="3.31446">
        <ele>84.1</ele>
        <time>2023-09-16T09:36:29Z</time>
      </trkpt>
      <trkpt lat="48.14809" lon="3.3145">
        <ele>84.7</ele>
        <time>2023-09-16T09:36:37Z</time>
      </trkpt>
      <trkpt lat="48.14844" lon="3.31457">
        <ele>86.1</ele>
        <time>2023-09-16T09:36:48Z</time>
      </trkpt>
      <trkpt lat="48.14873" lon="3.31462">
        <ele>86.9</ele>
        <time>2023-09-16T09:36:58Z</time>
      </trkpt>
      <trkpt lat="48.14898" lon="3.31466">
        <ele>87.1</ele>
        <time>2023-09-16T09:37:07Z</time>
      </trkpt>
      <trkpt lat="48.14914" lon="3.31469">
        <ele>87</ele>
        <time>2023-09-16T09:37:14Z</time>
      </trkpt>
      <trkpt lat="48.14923" lon="3.3147">
        <ele>87.1</ele>
        <time>2023-09-16T09:37:20Z</time>
      </trkpt>
      <trkpt lat="48.14925" lon="3.3147">
        <ele>87.2</ele>
        <time>2023-09-16T09:37:26Z</time>
      </trkpt>
      <trkpt lat="48.1493" lon="3.31469">
        <ele>87.3</ele>
        <time>2023-09-16T09:37:34Z</time>
      </trkpt>
      <trkpt lat="48.14932" lon="3.31469">
        <ele>87.4</ele>
        <time>2023-09-16T09:37:36Z</time>
      </trkpt>
      <trkpt lat="48.14933" lon="3.31469">
        <ele>87.4</ele>
        <time>2023-09-16T09:37:37Z</time>
      </trkpt>
      <trkpt lat="48.14949" lon="3.31471">
        <ele>87.7</ele>
        <time>2023-09-16T09:37:46Z</time>
      </trkpt>
      <trkpt lat="48.14972" lon="3.31479">
        <ele>87.7</ele>
        <time>2023-09-16T09:37:55Z</time>
      </trkpt>
      <trkpt lat="48.14996" lon="3.31483">
        <ele>87.3</ele>
        <time>2023-09-16T09:38:04Z</time>
      </trkpt>
      <trkpt lat="48.15027" lon="3.31488">
        <ele>86.2</ele>
        <time>2023-09-16T09:38:13Z</time>
      </trkpt>
      <trkpt lat="48.15047" lon="3.31494">
        <ele>84</ele>
        <time>2023-09-16T09:38:20Z</time>
      </trkpt>
      <trkpt lat="48.1505" lon="3.31495">
        <ele>83.8</ele>
        <time>2023-09-16T09:38:26Z</time>
      </trkpt>
      <trkpt lat="48.15052" lon="3.31494">
        <ele>83.4</ele>
        <time>2023-09-16T09:38:35Z</time>
      </trkpt>
      <trkpt lat="48.15054" lon="3.31494">
        <ele>83.1</ele>
        <time>2023-09-16T09:38:43Z</time>
      </trkpt>
      <trkpt lat="48.15055" lon="3.31494">
        <ele>83</ele>
        <time>2023-09-16T09:38:52Z</time>
      </trkpt>
      <trkpt lat="48.15057" lon="3.31494">
        <ele>82.9</ele>
        <time>2023-09-16T09:39:01Z</time>
      </trkpt>
      <trkpt lat="48.15046" lon="3.31452">
        <ele>81.6</ele>
      </trkpt>
      <trkpt lat="48.15041" lon="3.31431">
        <ele>81.3</ele>
        <time>2023-09-16T09:39:10Z</time>
      </trkpt>
      <trkpt lat="48.15038" lon="3.31409">
        <ele>80.5</ele>
        <time>2023-09-16T09:39:21Z</time>
      </trkpt>
      <trkpt lat="48.15033" lon="3.31364">
        <ele>78.2</ele>
        <time>2023-09-16T09:39:30Z</time>
      </trkpt>
      <trkpt lat="48.15035" lon="3.31365">
        <ele>78.3</ele>
      </trkpt>
      <trkpt lat="48.15041" lon="3.31405">
        <ele>80.3</ele>
      </trkpt>
      <trkpt lat="48.15056" lon="3.31452">
        <ele>80.5</ele>
      </trkpt>
      <trkpt lat="48.1507" lon="3.31498">
        <ele>83.3</ele>
        <time>2023-09-16T09:39:37Z</time>
      </trkpt>
      <trkpt lat="48.15071" lon="3.31499">
        <ele>83.3</ele>
        <time>2023-09-16T09:39:38Z</time>
      </trkpt>
      <trkpt lat="48.15072" lon="3.315">
        <ele>83.4</ele>
        <time>2023-09-16T09:39:39Z</time>
      </trkpt>
      <trkpt lat="48.15075" lon="3.31513">
        <ele>83.6</ele>
        <time>2023-09-16T09:39:45Z</time>
      </trkpt>
      <trkpt lat="48.15079" lon="3.31538">
        <ele>83.9</ele>
        <time>2023-09-16T09:39:54Z</time>
      </trkpt>
      <trkpt lat="48.1508" lon="3.31567">
        <ele>84.5</ele>
        <time>2023-09-16T09:40:02Z</time>
      </trkpt>
      <trkpt lat="48.15079" lon="3.31609">
        <ele>84.6</ele>
        <time>2023-09-16T09:40:12Z</time>
      </trkpt>
      <trkpt lat="48.15075" lon="3.31661">
        <ele>85.2</ele>
        <time>2023-09-16T09:40:22Z</time>
      </trkpt>
      <trkpt lat="48.15069" lon="3.31696">
        <ele>84</ele>
        <time>2023-09-16T09:40:29Z</time>
      </trkpt>
      <trkpt lat="48.1506" lon="3.31739">
        <ele>85.7</ele>
        <time>2023-09-16T09:40:38Z</time>
      </trkpt>
      <trkpt lat="48.15057" lon="3.31754">
        <ele>87</ele>
        <time>2023-09-16T09:40:41Z</time>
      </trkpt>
      <trkpt lat="48.15063" lon="3.31758">
        <ele>87.4</ele>
        <time>2023-09-16T09:40:42Z</time>
      </trkpt>
      <trkpt lat="48.15071" lon="3.3177">
        <ele>88.4</ele>
      </trkpt>
      <trkpt lat="48.15053" lon="3.31804">
        <ele>88.7</ele>
        <time>2023-09-16T09:40:58Z</time>
      </trkpt>
      <trkpt lat="48.15054" lon="3.31861">
        <ele>92.6</ele>
      </trkpt>
      <trkpt lat="48.15038" lon="3.32149">
        <ele>94.8</ele>
      </trkpt>
      <trkpt lat="48.15005" lon="3.32482">
        <ele>104.6</ele>
        <time>2023-09-16T09:41:04Z</time>
      </trkpt>
    </trkseg>
  </trk>
</gpx>